Time;durP1;ratioP1;P1;durP2;ratioP2;P2;SDS_P1;SDS_P2;PMS_P1;PMS_P2;Temp;Humidity;BMP_temperature;BMP_pressure;BME280_temperature;BME280_humidity;BME280_pressure;Samples;Min_cycle;Max_cycle;Signal;HPM_P1;HPM_P2
2022/04/08 00:02:15;;;;;;;2.33;2.03;;;;;;;11.34;97.67;93485.56;5067389;28;20288;-76
2022/04/08 00:04:44;;;;;;;2.00;1.80;;;;;;;11.39;96.88;93494.19;5066793;28;20197;-77
2022/04/08 00:07:10;;;;;;;3.37;2.10;;;;;;;11.41;96.60;93501.72;5067432;28;20700;-77
2022/04/08 00:09:37;;;;;;;4.23;2.07;;;;;;;11.37;96.68;93500.63;5066845;28;20237;-77
2022/04/08 00:12:05;;;;;;;3.57;2.20;;;;;;;11.36;96.40;93505.09;5066775;28;20216;-77
2022/04/08 00:14:32;;;;;;;2.33;2.00;;;;;;;11.34;95.82;93495.97;5068439;28;20236;-77
2022/04/08 00:16:59;;;;;;;3.03;2.00;;;;;;;11.31;96.55;93509.47;5070543;28;20217;-77
2022/04/08 00:19:27;;;;;;;6.33;2.10;;;;;;;11.33;96.78;93504.78;5070181;28;20211;-77
2022/04/08 00:21:55;;;;;;;3.47;2.10;;;;;;;11.35;96.61;93518.31;5070485;28;20683;-77
2022/04/08 00:24:22;;;;;;;3.93;2.23;;;;;;;11.28;96.83;93515.16;5068916;28;20204;-77
2022/04/08 00:26:49;;;;;;;2.97;2.10;;;;;;;11.27;96.65;93524.00;5071363;28;20189;-77
2022/04/08 00:29:16;;;;;;;3.27;2.07;;;;;;;11.27;96.63;93532.59;5071442;28;20198;-77
2022/04/08 00:31:43;;;;;;;3.53;2.07;;;;;;;11.27;96.66;93531.78;5068544;28;20194;-77
2022/04/08 00:34:10;;;;;;;5.87;2.17;;;;;;;11.27;97.13;93539.59;5070310;28;20194;-77
2022/04/08 00:36:37;;;;;;;6.03;2.10;;;;;;;11.26;96.58;93536.22;5069955;28;20221;-75
2022/04/08 00:39:05;;;;;;;4.97;1.90;;;;;;;11.24;96.61;93535.69;5070305;28;20208;-77
2022/04/08 00:41:32;;;;;;;2.30;1.90;;;;;;;11.23;96.50;93531.50;5069735;28;20596;-77
2022/04/08 00:43:59;;;;;;;4.60;2.30;;;;;;;11.23;95.46;93526.31;5069055;28;20197;-76
2022/04/08 00:46:25;;;;;;;3.60;1.90;;;;;;;11.21;95.72;93525.78;5070417;28;20676;-77
2022/04/08 00:48:52;;;;;;;2.70;1.93;;;;;;;11.18;94.99;93531.47;5067503;28;20197;-75
2022/04/08 00:51:19;;;;;;;4.40;2.20;;;;;;;11.17;94.76;93522.09;5068844;28;20234;-76
2022/04/08 00:53:47;;;;;;;4.73;2.27;;;;;;;11.17;94.47;93523.91;5070357;28;20200;-76
2022/04/08 00:56:16;;;;;;;3.57;2.10;;;;;;;11.20;93.81;93523.41;5070020;28;20221;-77
2022/04/08 00:58:43;;;;;;;2.83;2.00;;;;;;;11.25;93.81;93521.66;5070077;28;20201;-76
2022/04/08 01:01:10;;;;;;;4.37;2.10;;;;;;;11.23;94.10;93536.69;5067656;28;20266;-76
2022/04/08 01:03:37;;;;;;;3.47;2.30;;;;;;;11.15;94.53;93539.78;5069462;28;20205;-77
2022/04/08 01:06:04;;;;;;;2.50;2.20;;;;;;;11.15;93.32;93516.38;5070210;28;20186;-77
2022/04/08 01:08:34;;;;;;;2.97;2.20;;;;;;;11.16;93.07;93528.34;5069786;28;20271;-77
2022/04/08 01:11:00;;;;;;;2.30;2.10;;;;;;;11.14;93.00;93537.44;5068561;28;20569;-77
2022/04/08 01:13:29;;;;;;;3.17;2.40;;;;;;;11.17;92.75;93536.91;5069588;28;20202;-77
2022/04/08 01:15:55;;;;;;;4.77;2.57;;;;;;;11.18;92.85;93544.47;5069120;28;20706;-78
2022/04/08 01:18:22;;;;;;;4.23;2.50;;;;;;;11.15;91.98;93544.19;5069770;28;20201;-78
2022/04/08 01:20:49;;;;;;;5.60;2.87;;;;;;;11.12;93.49;93550.66;5069181;28;20201;-78
2022/04/08 01:23:18;;;;;;;5.03;2.50;;;;;;;11.09;92.79;93550.38;5068975;28;20198;-78
2022/04/08 01:25:46;;;;;;;7.00;3.07;;;;;;;11.07;93.28;93560.25;5068705;28;20254;-76
2022/04/08 01:28:13;;;;;;;5.33;2.93;;;;;;;10.99;93.40;93571.09;5069101;28;20631;-77
2022/04/08 01:30:40;;;;;;;5.77;3.07;;;;;;;10.90;94.56;93555.16;5069053;28;20204;-77
2022/04/08 01:33:07;;;;;;;3.53;2.40;;;;;;;10.94;93.67;93565.84;5068572;28;20905;-77
2022/04/08 01:35:34;;;;;;;3.63;2.73;;;;;;;10.83;93.08;93560.56;5068433;28;20224;-76
2022/04/08 01:38:00;;;;;;;4.00;2.57;;;;;;;10.81;93.30;93565.22;5067748;28;20239;-77
2022/04/08 01:40:27;;;;;;;2.53;2.30;;;;;;;10.53;94.50;93552.47;5068555;28;20208;-78
2022/04/08 01:42:56;;;;;;;4.40;2.30;;;;;;;10.38;95.34;93547.13;5068257;28;20193;-76
2022/04/08 01:45:23;;;;;;;3.67;2.70;;;;;;;10.53;94.54;93549.09;5068483;28;20193;-78
2022/04/08 01:47:49;;;;;;;5.03;2.50;;;;;;;10.56;95.17;93548.59;5068549;28;20201;-77
2022/04/08 01:50:18;;;;;;;2.30;2.10;;;;;;;10.71;93.50;93544.31;5068948;28;20208;-76
2022/04/08 01:52:45;;;;;;;2.77;2.37;;;;;;;10.72;93.26;93555.50;5067079;28;20264;-75
2022/04/08 01:55:12;;;;;;;5.07;2.43;;;;;;;10.62;93.95;93555.44;5068004;28;20225;-76
2022/04/08 01:57:40;;;;;;;3.70;2.30;;;;;;;10.74;92.72;93566.44;5068094;28;20355;-76
2022/04/08 02:00:11;;;;;;;2.90;2.43;;;;;;;10.67;93.09;93552.88;5068340;28;20202;-75
2022/04/08 02:02:38;;;;;;;2.97;2.37;;;;;;;10.75;92.34;93566.19;5068556;28;20267;-77
2022/04/08 02:05:06;;;;;;;4.23;2.30;;;;;;;10.85;90.51;93562.13;5068184;28;20826;-77
2022/04/08 02:07:33;;;;;;;2.73;2.23;;;;;;;10.91;89.75;93563.75;5068317;28;20197;-76
2022/04/08 02:09:59;;;;;;;2.47;2.27;;;;;;;10.99;87.50;93566.69;5066165;28;20648;-77
2022/04/08 02:12:26;;;;;;;3.67;2.40;;;;;;;11.10;86.71;93578.72;5068195;28;20220;-76
2022/04/08 02:14:54;;;;;;;3.13;2.50;;;;;;;11.19;86.12;93568.66;5067744;28;20221;-76
2022/04/08 02:17:25;;;;;;;3.10;2.40;;;;;;;11.25;86.53;93588.47;5065405;28;20631;-76
2022/04/08 02:19:52;;;;;;;4.23;2.30;;;;;;;11.24;85.95;93574.69;5068235;28;20203;-76
2022/04/08 02:22:20;;;;;;;4.40;2.50;;;;;;;11.20;86.70;93591.81;5065628;28;20611;-75
2022/04/08 02:24:47;;;;;;;3.83;2.43;;;;;;;11.20;86.32;93586.59;5065511;28;20266;-75
2022/04/08 02:27:14;;;;;;;3.47;2.57;;;;;;;11.13;86.99;93585.25;5068523;28;20243;-77
2022/04/08 02:29:40;;;;;;;3.97;2.63;;;;;;;11.09;86.70;93587.56;5067891;28;20205;-78
2022/04/08 02:32:09;;;;;;;3.00;2.33;;;;;;;11.15;86.37;93596.97;5067373;28;20213;-77
2022/04/08 02:34:37;;;;;;;3.00;2.20;;;;;;;11.18;85.69;93606.09;5067986;28;20668;-77
2022/04/08 02:37:05;;;;;;;4.10;2.27;;;;;;;11.26;83.20;93608.22;5066894;28;20300;-77
2022/04/08 02:39:32;;;;;;;3.13;2.10;;;;;;;11.33;82.66;93621.84;5067401;28;20557;-77
2022/04/08 02:41:59;;;;;;;2.57;2.37;;;;;;;11.36;83.26;93614.31;5065849;28;20627;-78
2022/04/08 02:44:25;;;;;;;4.87;2.40;;;;;;;11.38;82.82;93622.66;5067172;28;20208;-78
2022/04/08 02:46:52;;;;;;;2.80;2.20;;;;;;;11.45;81.80;93624.28;5066796;28;20197;-77
2022/04/08 02:49:19;;;;;;;4.97;2.30;;;;;;;11.49;81.95;93623.50;5067709;28;20200;-76
2022/04/08 02:51:47;;;;;;;2.70;1.93;;;;;;;11.55;81.33;93624.34;5068334;28;20189;-77
2022/04/08 02:54:15;;;;;;;4.73;2.30;;;;;;;11.53;81.40;93642.03;5066870;28;20697;-76
2022/04/08 02:56:42;;;;;;;4.07;2.23;;;;;;;11.47;82.04;93640.41;5067718;28;20267;-76
2022/04/08 02:59:10;;;;;;;2.90;2.00;;;;;;;11.44;82.23;93633.88;5066545;28;20198;-77
2022/04/08 03:01:38;;;;;;;3.27;2.33;;;;;;;11.50;82.61;93663.31;5067033;28;20753;-77
2022/04/08 03:04:06;;;;;;;4.27;2.40;;;;;;;11.44;83.66;93654.69;5066822;28;20503;-76
2022/04/08 03:06:33;;;;;;;5.23;2.70;;;;;;;11.30;84.27;93646.53;5067123;28;20225;-77
2022/04/08 03:09:02;;;;;;;4.30;2.60;;;;;;;11.20;85.61;93649.00;5065882;28;20557;-77
2022/04/08 03:11:29;;;;;;;5.20;2.33;;;;;;;11.24;87.12;93665.72;5063725;28;20710;-77
2022/04/08 03:13:59;;;;;;;4.07;2.40;;;;;;;11.13;87.33;93666.66;5064118;28;20225;-77
2022/04/08 03:16:26;;;;;;;4.40;2.80;;;;;;;10.88;88.73;93645.56;5065027;28;20221;-76
2022/04/08 03:18:53;;;;;;;4.13;2.50;;;;;;;10.79;88.87;93657.47;5065642;28;20713;-76
2022/04/08 03:21:20;;;;;;;4.20;2.43;;;;;;;10.67;89.62;93662.78;5063129;28;20301;-76
2022/04/08 03:23:48;;;;;;;4.40;2.80;;;;;;;10.62;89.76;93660.09;5066640;28;20197;-77
2022/04/08 03:26:16;;;;;;;6.23;2.50;;;;;;;10.45;90.15;93664.56;5066097;28;20216;-80
2022/04/08 03:28:43;;;;;;;5.70;3.23;;;;;;;10.49;89.96;93668.28;5067117;28;20205;-77
2022/04/08 03:31:11;;;;;;;4.07;2.77;;;;;;;10.45;90.41;93672.38;5066363;28;20229;-77
2022/04/08 03:33:38;;;;;;;4.53;2.67;;;;;;;10.33;91.00;93676.13;5066986;28;20205;-73
2022/04/08 03:36:06;;;;;;;4.63;2.40;;;;;;;10.22;91.54;93675.19;5066546;28;21655;-73
2022/04/08 03:38:33;;;;;;;6.10;2.30;;;;;;;10.43;87.09;93671.03;5066932;28;20217;-73
2022/04/08 03:41:00;;;;;;;5.10;2.50;;;;;;;10.70;84.56;93684.91;5065825;28;20197;-73
2022/04/08 03:43:28;;;;;;;5.33;2.40;;;;;;;10.78;84.39;93698.25;5066534;28;20200;-74
2022/04/08 03:45:55;;;;;;;2.93;1.73;;;;;;;10.92;83.25;93709.06;5066959;28;20201;-75
2022/04/08 03:48:22;;;;;;;1.77;1.57;;;;;;;11.04;82.50;93704.50;5068848;28;20202;-74
2022/04/08 03:50:49;;;;;;;5.10;2.83;;;;;;;11.10;82.39;93705.34;5068221;28;20209;-74
2022/04/08 03:53:15;;;;;;;2.63;1.73;;;;;;;11.19;81.11;93722.09;5060212;28;20208;-74
2022/04/08 03:55:42;;;;;;;2.53;1.50;;;;;;;11.21;80.94;93731.22;5064718;28;20204;-74
2022/04/08 03:58:10;;;;;;;2.10;1.60;;;;;;;11.26;80.69;93731.25;5067655;28;20715;-74
2022/04/08 04:00:41;;;;;;;2.60;1.93;;;;;;;11.26;81.30;93731.25;5070142;28;20201;-75
2022/04/08 04:03:09;;;;;;;2.33;1.40;;;;;;;11.24;80.48;93728.13;5069501;28;20197;-74
2022/04/08 04:05:36;;;;;;;2.83;1.70;;;;;;;11.22;81.52;93734.59;5070201;28;20197;-74
2022/04/08 04:08:03;;;;;;;2.10;1.70;;;;;;;11.22;81.93;93732.78;5069762;28;20566;-74
2022/04/08 04:10:30;;;;;;;2.93;2.27;;;;;;;11.20;81.15;93737.44;5069438;28;20197;-74
2022/04/08 04:12:57;;;;;;;2.40;1.90;;;;;;;11.20;81.42;93753.03;5069034;28;20671;-74
2022/04/08 04:15:24;;;;;;;2.33;1.80;;;;;;;11.16;81.33;93740.78;5069448;28;20286;-74
2022/04/08 04:17:52;;;;;;;2.53;1.80;;;;;;;11.17;81.44;93752.72;5068947;28;20232;-73
2022/04/08 04:20:19;;;;;;;3.73;2.33;;;;;;;11.10;82.22;93762.56;5069105;28;20200;-74
2022/04/08 04:22:47;;;;;;;3.97;2.80;;;;;;;11.02;83.64;93760.38;5066985;28;20202;-74
2022/04/08 04:25:14;;;;;;;3.23;2.77;;;;;;;11.06;82.38;93764.06;5069080;28;20246;-73
2022/04/08 04:27:41;;;;;;;4.10;2.67;;;;;;;11.10;81.62;93765.94;5068993;28;20233;-74
2022/04/08 04:30:10;;;;;;;3.77;2.40;;;;;;;11.13;81.06;93767.25;5069179;28;20224;-74
2022/04/08 04:32:37;;;;;;;2.87;1.80;;;;;;;11.18;80.96;93768.09;5068617;28;20205;-75
2022/04/08 04:35:07;;;;;;;2.07;1.57;;;;;;;11.31;79.91;93778.13;5069059;28;20239;-74
2022/04/08 04:37:34;;;;;;;3.40;2.30;;;;;;;11.39;79.27;93798.53;5068523;28;20279;-74
2022/04/08 04:40:01;;;;;;;4.90;2.70;;;;;;;11.40;79.37;93786.28;5067125;28;20715;-74
2022/04/08 04:42:29;;;;;;;3.87;2.60;;;;;;;11.43;79.72;93790.25;5069358;28;20229;-74
2022/04/08 04:44:56;;;;;;;4.47;2.80;;;;;;;11.51;78.96;93780.19;5069252;28;20280;-74
2022/04/08 04:47:23;;;;;;;5.03;3.10;;;;;;;11.52;79.11;93783.53;5069284;28;20244;-74
2022/04/08 04:49:50;;;;;;;6.93;3.00;;;;;;;11.44;79.95;93792.59;5069230;28;20209;-73
2022/04/08 04:52:18;;;;;;;3.73;2.20;;;;;;;11.42;80.26;93807.66;5068093;28;21083;-73
2022/04/08 04:54:45;;;;;;;5.03;2.40;;;;;;;11.38;80.86;93811.75;5067316;28;20193;-74
2022/04/08 04:57:11;;;;;;;4.57;2.30;;;;;;;11.47;79.49;93818.09;5068464;28;20239;-73
2022/04/08 04:59:38;;;;;;;3.20;2.37;;;;;;;11.44;80.23;93828.22;5067893;28;20198;-74
2022/04/08 05:02:05;;;;;;;7.17;5.00;;;;;;;11.36;81.01;93825.03;5068771;28;20193;-73
2022/04/08 05:04:32;;;;;;;6.20;3.70;;;;;;;11.39;82.38;93834.94;5069281;28;20687;-73
2022/04/08 05:06:59;;;;;;;6.40;3.40;;;;;;;11.32;82.76;93831.72;5068778;28;20654;-73
2022/04/08 05:09:27;;;;;;;12.20;6.97;;;;;;;11.39;85.27;93845.34;5068957;28;20202;-73
2022/04/08 05:11:54;;;;;;;7.90;4.07;;;;;;;11.28;86.31;93841.03;5068264;28;20193;-73
2022/04/08 05:14:22;;;;;;;8.87;3.20;;;;;;;11.14;87.91;93839.06;5066432;28;20218;-73
2022/04/08 05:16:50;;;;;;;6.00;3.17;;;;;;;10.87;88.41;93832.97;5068737;28;20225;-73
2022/04/08 05:19:17;;;;;;;6.83;4.37;;;;;;;10.83;88.13;93845.66;5068369;28;20276;-73
2022/04/08 05:21:44;;;;;;;6.23;3.60;;;;;;;10.70;88.76;93838.19;5067546;28;20197;-73
2022/04/08 05:24:11;;;;;;;6.63;2.97;;;;;;;10.85;89.08;93855.81;5068241;28;20213;-72
2022/04/08 05:26:39;;;;;;;8.43;3.17;;;;;;;10.88;87.95;93863.16;5067773;28;20202;-73
2022/04/08 05:29:06;;;;;;;9.20;3.07;;;;;;;10.87;87.76;93851.97;5068193;28;20205;-73
2022/04/08 05:31:32;;;;;;;9.27;3.23;;;;;;;10.80;88.42;93862.50;5067800;28;20239;-73
2022/04/08 05:34:00;;;;;;;5.93;3.27;;;;;;;10.92;88.40;93866.81;5068061;28;20220;-74
2022/04/08 05:36:27;;;;;;;7.17;3.60;;;;;;;10.97;88.32;93856.47;5067064;28;20202;-73
2022/04/08 05:38:54;;;;;;;9.43;3.33;;;;;;;10.93;88.53;93858.00;5068053;28;20217;-72
2022/04/08 05:41:20;;;;;;;6.27;2.70;;;;;;;10.96;87.81;93854.94;5067690;28;20649;-73
2022/04/08 05:43:49;;;;;;;6.50;3.27;;;;;;;11.15;86.35;93861.41;5068585;28;20669;-71
2022/04/08 05:46:16;;;;;;;6.07;2.83;;;;;;;11.20;86.27;93870.06;5068761;28;20227;-70
2022/04/08 05:48:43;;;;;;;6.70;3.23;;;;;;;11.40;82.58;93872.13;5068703;28;20204;-75
2022/04/08 05:51:10;;;;;;;5.30;3.10;;;;;;;11.42;82.92;93875.28;5068019;28;20201;-73
2022/04/08 05:53:36;;;;;;;4.67;3.00;;;;;;;11.46;86.23;93868.56;5067893;28;20209;-73
2022/04/08 05:56:04;;;;;;;4.40;3.30;;;;;;;11.47;87.91;93867.53;5067322;28;20198;-71
2022/04/08 05:58:31;;;;;;;6.73;3.00;;;;;;;11.47;89.80;93864.16;5068002;28;20227;-72
2022/04/08 06:01:00;;;;;;;9.60;3.10;;;;;;;11.36;90.03;93856.25;5067314;28;20201;-72
2022/04/08 06:03:26;;;;;;;7.83;3.30;;;;;;;11.46;89.94;93871.16;5064542;28;20201;-72
2022/04/08 06:05:54;;;;;;;5.47;3.10;;;;;;;11.53;89.23;93865.78;5067342;28;20614;-72
2022/04/08 06:08:21;;;;;;;3.07;2.60;;;;;;;11.55;89.02;93863.72;5067044;28;20196;-73
2022/04/08 06:10:48;;;;;;;6.07;2.63;;;;;;;11.48;89.73;93866.53;5068009;28;20277;-73
2022/04/08 06:13:16;;;;;;;4.37;2.73;;;;;;;11.53;86.50;93877.00;5067725;28;20205;-72
2022/04/08 06:15:43;;;;;;;4.47;2.80;;;;;;;11.79;80.18;93876.28;5067488;28;20249;-72
2022/04/08 06:18:13;;;;;;;5.23;2.93;;;;;;;12.06;78.29;93886.72;5067585;28;20233;-72
2022/04/08 06:20:40;;;;;;;7.40;3.23;;;;;;;12.25;75.98;93890.53;5066439;28;20967;-72
2022/04/08 06:23:06;;;;;;;4.10;2.57;;;;;;;12.48;74.52;93895.44;5067662;28;20404;-71
2022/04/08 06:25:33;;;;;;;5.20;2.40;;;;;;;12.54;73.18;93893.66;5067085;28;20652;-72
2022/04/08 06:28:02;;;;;;;3.03;2.47;;;;;;;12.55;73.31;93895.22;5067093;28;20201;-73
2022/04/08 06:30:30;;;;;;;4.63;2.67;;;;;;;12.70;72.39;93897.94;5067971;28;20198;-74
2022/04/08 06:32:57;;;;;;;6.57;3.03;;;;;;;12.94;71.95;93893.16;5066906;28;20204;-74
2022/04/08 06:35:25;;;;;;;5.20;3.07;;;;;;;13.06;70.43;93894.56;5066849;28;20203;-74
2022/04/08 06:37:59;;;;;;;4.50;2.70;;;;;;;13.14;68.62;93906.38;5067255;28;20703;-74
2022/04/08 06:40:25;;;;;;;3.33;2.50;;;;;;;13.23;68.61;93899.63;5067266;28;20284;-74
2022/04/08 06:42:55;;;;;;;3.53;2.50;;;;;;;13.28;68.77;93901.47;5066907;28;20234;-79
2022/04/08 06:45:26;;;;;;;4.00;2.33;;;;;;;13.34;68.50;93909.09;5067880;28;20200;-77
2022/04/08 06:47:53;;;;;;;3.03;2.20;;;;;;;13.14;68.73;93895.94;5066539;28;20177;-77
2022/04/08 06:50:21;;;;;;;3.57;2.67;;;;;;;13.21;69.29;93906.16;5067389;28;20198;-80
2022/04/08 06:52:49;;;;;;;4.07;1.83;;;;;;;13.22;67.16;93903.28;5068006;28;20220;-80
2022/04/08 06:55:16;;;;;;;3.47;2.70;;;;;;;13.27;68.40;93898.13;5067316;28;20304;-78
2022/04/08 06:57:43;;;;;;;5.37;2.70;;;;;;;13.41;67.70;93904.44;5068023;28;20209;-79
2022/04/08 07:00:12;;;;;;;4.03;2.80;;;;;;;13.53;68.38;93904.25;5067387;28;20752;-78
2022/04/08 07:02:39;;;;;;;7.13;2.50;;;;;;;13.57;67.68;93903.47;5066547;28;20306;-78
2022/04/08 07:05:07;;;;;;;3.13;2.50;;;;;;;13.59;68.47;93906.59;5068676;28;20213;-78
2022/04/08 07:07:35;;;;;;;5.63;2.83;;;;;;;13.69;66.47;93899.84;5066916;28;20198;-78
2022/04/08 07:10:06;;;;;;;5.87;2.80;;;;;;;13.79;65.80;93916.38;5066157;28;20578;-78
2022/04/08 07:12:34;;;;;;;6.30;2.57;;;;;;;13.75;66.62;93917.91;5067041;28;20205;-79
2022/04/08 07:15:00;;;;;;;3.20;2.37;;;;;;;13.69;67.37;93912.91;5066166;28;20225;-79
2022/04/08 07:17:28;;;;;;;5.60;3.10;;;;;;;13.68;67.00;93924.41;5066920;28;20221;-77
2022/04/08 07:19:56;;;;;;;3.77;2.70;;;;;;;13.85;67.29;93935.47;5059966;28;20228;-78
2022/04/08 07:22:26;;;;;;;5.33;2.47;;;;;;;13.93;67.89;93933.13;5065140;28;20197;-80
2022/04/08 07:24:55;;;;;;;4.33;2.37;;;;;;;13.87;65.91;93939.38;5060375;28;20396;-80
2022/04/08 07:27:23;;;;;;;3.13;2.20;;;;;;;13.73;65.74;93938.28;5067692;28;20204;-77
2022/04/08 07:29:58;;;;;;;3.53;2.20;;;;;;;13.75;67.61;93949.25;5069206;28;20193;-79
2022/04/08 07:32:28;;;;;;;4.93;2.50;;;;;;;13.84;67.33;93937.28;5068893;28;20231;-80
2022/04/08 07:34:55;;;;;;;4.27;2.47;;;;;;;13.99;68.23;93945.19;5060839;28;20208;-80
2022/04/08 07:37:33;;;;;;;4.50;2.60;;;;;;;14.00;68.02;93936.28;5066229;28;20209;-80
2022/04/08 07:40:00;;;;;;;7.17;2.90;;;;;;;14.15;66.74;93946.78;5067059;28;20190;-80
2022/04/08 07:42:29;;;;;;;3.80;2.57;;;;;;;14.21;65.09;93948.38;5065558;28;20198;-81
2022/04/08 07:44:59;;;;;;;4.23;2.60;;;;;;;14.35;64.35;93956.53;5067664;28;20206;-78
2022/04/08 07:47:39;;;;;;;3.47;2.17;;;;;;;14.30;64.17;93953.88;5067677;28;20209;-77
2022/04/08 07:50:10;;;;;;;3.53;2.17;;;;;;;14.19;64.60;93967.97;5065520;28;20207;-80
2022/04/08 07:52:37;;;;;;;3.17;2.23;;;;;;;14.25;65.51;93974.00;5068926;28;20216;-81
2022/04/08 07:55:05;;;;;;;3.90;2.27;;;;;;;14.32;65.55;93967.50;5069131;28;20280;-85
2022/04/08 07:57:34;;;;;;;4.10;2.67;;;;;;;14.41;64.70;93965.97;5069579;28;20193;-80
2022/04/08 08:00:03;;;;;;;4.00;2.33;;;;;;;14.43;64.85;93958.63;5068570;28;20251;-81
2022/04/08 08:02:32;;;;;;;5.63;2.40;;;;;;;14.37;65.07;93962.28;5069123;28;20284;-81
2022/04/08 08:04:59;;;;;;;3.20;2.40;;;;;;;14.58;63.26;93974.38;5068570;28;20236;-80
2022/04/08 08:07:25;;;;;;;3.37;2.23;;;;;;;14.62;63.75;93972.81;5067276;28;20652;-76
2022/04/08 08:09:53;;;;;;;5.43;2.70;;;;;;;14.78;63.17;93974.41;5066322;28;20208;-78
2022/04/08 08:12:21;;;;;;;5.00;2.83;;;;;;;14.87;63.15;93972.03;5065202;28;20628;-74
2022/04/08 08:14:49;;;;;;;6.23;2.80;;;;;;;14.88;63.94;93963.16;5066445;28;20226;-74
2022/04/08 08:17:16;;;;;;;4.33;2.40;;;;;;;14.75;63.83;93972.31;5065723;28;20198;-74
2022/04/08 08:19:42;;;;;;;4.00;2.23;;;;;;;14.86;63.52;93970.50;5065864;28;20229;-73
2022/04/08 08:22:09;;;;;;;6.03;2.47;;;;;;;14.90;64.50;93971.53;5063974;28;20198;-78
2022/04/08 08:24:36;;;;;;;3.70;2.63;;;;;;;14.97;64.36;93971.28;5066606;28;20209;-79
2022/04/08 08:27:03;;;;;;;2.40;2.00;;;;;;;15.07;62.77;93972.06;5066649;28;20197;-78
2022/04/08 08:29:30;;;;;;;5.20;2.20;;;;;;;15.13;62.54;93973.63;5066370;28;20204;-78
2022/04/08 08:31:58;;;;;;;3.60;2.33;;;;;;;15.07;63.28;93984.34;5064237;28;20190;-78
2022/04/08 08:34:25;;;;;;;4.53;2.80;;;;;;;15.04;64.01;93985.66;5066344;28;20618;-79
2022/04/08 08:36:57;;;;;;;2.57;2.00;;;;;;;15.17;62.39;93984.38;5068943;28;20205;-78
2022/04/08 08:39:24;;;;;;;3.27;2.53;;;;;;;15.17;64.00;93981.75;5068928;28;20206;-82
2022/04/08 08:41:51;;;;;;;2.40;2.10;;;;;;;15.26;63.92;93988.03;5069886;28;20204;-78
2022/04/08 08:44:19;;;;;;;4.20;2.10;;;;;;;15.38;63.20;93991.16;5069643;28;20201;-78
2022/04/08 08:46:46;;;;;;;5.07;2.57;;;;;;;15.43;62.89;93988.53;5067562;28;20204;-78
2022/04/08 08:49:15;;;;;;;2.93;2.23;;;;;;;15.61;62.10;93990.63;5071408;28;20197;-81
2022/04/08 08:51:43;;;;;;;2.30;2.10;;;;;;;15.58;63.37;93996.41;5071616;28;20208;-81
2022/04/08 08:54:10;;;;;;;4.50;2.13;;;;;;;15.76;63.00;93998.44;5069649;28;20209;-78
2022/04/08 08:56:37;;;;;;;4.47;2.20;;;;;;;15.79;61.31;94003.16;5064110;28;21264;-78
2022/04/08 08:59:03;;;;;;;3.67;2.20;;;;;;;15.81;61.41;94008.16;5067118;28;20213;-78
2022/04/08 09:01:32;;;;;;;2.67;2.10;;;;;;;15.81;61.70;93992.44;5068859;28;20206;-79
2022/04/08 09:04:04;;;;;;;4.90;2.60;;;;;;;15.95;61.41;93996.06;5069365;28;20717;-79
2022/04/08 09:06:41;;;;;;;5.43;2.00;;;;;;;16.02;62.16;93991.28;5061394;28;20539;-80
2022/04/08 09:09:11;;;;;;;3.90;2.17;;;;;;;16.17;62.72;93991.25;5068906;28;20666;-80
2022/04/08 09:11:38;;;;;;;4.43;2.30;;;;;;;16.35;61.95;93987.25;5069898;28;20280;-81
2022/04/08 09:14:06;;;;;;;7.20;2.30;;;;;;;16.59;62.71;93990.84;5061931;28;20217;-80
2022/04/08 09:16:38;;;;;;;5.70;2.10;;;;;;;16.74;61.54;93988.09;5069953;28;20197;-80
2022/04/08 09:19:12;;;;;;;2.90;2.37;;;;;;;16.89;60.94;93976.72;5069238;28;20220;-80
2022/04/08 09:21:50;;;;;;;3.20;2.20;;;;;;;16.98;59.09;93982.97;5068310;28;20202;-80
2022/04/08 09:24:17;;;;;;;3.87;2.40;;;;;;;17.07;60.12;93978.69;5069630;28;20662;-80
2022/04/08 09:26:44;;;;;;;6.10;2.30;;;;;;;17.30;60.74;93985.88;5070012;28;20204;-79
2022/04/08 09:29:10;;;;;;;2.67;2.10;;;;;;;17.60;61.67;93990.09;5069595;28;20660;-79
2022/04/08 09:31:37;;;;;;;3.80;2.20;;;;;;;17.79;63.32;93988.34;5069063;28;20205;-80
2022/04/08 09:34:14;;;;;;;5.43;2.00;;;;;;;18.01;63.12;93985.97;5069453;28;20648;-80
2022/04/08 09:36:43;;;;;;;5.17;2.20;;;;;;;18.15;61.42;93980.84;5069188;28;20784;-80
2022/04/08 09:39:10;;;;;;;3.43;2.70;;;;;;;18.28;62.82;93987.25;5069113;28;20221;-80
2022/04/08 09:41:39;;;;;;;2.93;2.20;;;;;;;18.51;63.31;93979.38;5069335;28;20209;-82
2022/04/08 09:44:07;;;;;;;3.13;2.58;;;;;;;18.59;62.11;93986.63;5067607;28;20201;-79
2022/04/08 09:46:35;;;;;;;5.32;2.40;;;;;;;18.80;61.73;93981.06;5068627;28;20201;-80
2022/04/08 09:49:02;;;;;;;7.43;2.40;;;;;;;19.01;61.03;93979.72;5067445;28;20213;-79
2022/04/08 09:51:32;;;;;;;5.32;2.92;;;;;;;19.17;60.59;93983.69;5067858;28;20281;-77
2022/04/08 09:54:02;;;;;;;4.82;2.33;;;;;;;19.39;60.69;93978.63;5068072;28;20197;-79
2022/04/08 09:56:31;;;;;;;3.08;2.20;;;;;;;19.54;58.82;93974.94;5069731;28;20573;-80
2022/04/08 09:59:05;;;;;;;7.47;2.53;;;;;;;19.69;58.40;93982.59;5069213;28;20221;-78
2022/04/08 10:01:32;;;;;;;5.63;2.10;;;;;;;19.75;58.40;93982.22;5069965;28;20202;-78
2022/04/08 10:04:03;;;;;;;5.68;2.42;;;;;;;19.83;58.48;93964.16;5067924;28;20202;-83
2022/04/08 10:06:33;;;;;;;4.13;2.05;;;;;;;19.95;57.77;93954.69;5071195;28;20201;-80
2022/04/08 10:09:05;;;;;;;3.50;2.17;;;;;;;20.29;57.93;93970.91;5070580;28;20664;-86
2022/04/08 10:11:44;;;;;;;8.23;2.35;;;;;;;20.55;56.78;93957.22;5069711;28;20190;-83
2022/04/08 10:14:36;;;;;;;6.40;2.92;;;;;;;20.52;55.18;93958.56;5070812;28;20691;-83
2022/04/08 10:17:04;;;;;;;5.20;2.80;;;;;;;20.85;54.85;93944.13;5071478;28;20270;-82
2022/04/08 10:19:32;;;;;;;6.65;2.35;;;;;;;21.15;54.11;93958.53;5070526;28;20241;-84
2022/04/08 10:22:00;;;;;;;4.90;2.25;;;;;;;21.44;52.55;93956.19;5070285;28;20246;-83
2022/04/08 10:24:30;;;;;;;4.45;2.30;;;;;;;21.76;51.46;93957.78;5070804;28;20193;-83
2022/04/08 10:27:06;;;;;;;7.68;2.10;;;;;;;22.14;49.79;93963.41;5070863;28;20209;-83
2022/04/08 10:29:33;;;;;;;3.97;2.63;;;;;;;21.97;41.95;93944.81;5069322;28;20201;-83
2022/04/08 10:32:02;;;;;;;2.78;1.60;;;;;;;22.10;36.28;93975.72;5068988;28;20247;-83
2022/04/08 10:34:32;;;;;;;1.95;1.60;;;;;;;21.69;36.16;93949.50;5069537;28;20835;-83
2022/04/08 10:37:00;;;;;;;3.40;1.70;;;;;;;21.63;36.64;93955.22;5070354;28;20263;-83
2022/04/08 10:39:28;;;;;;;3.10;1.73;;;;;;;21.65;37.08;93953.03;5066668;28;20221;-83
2022/04/08 10:41:57;;;;;;;3.65;2.00;;;;;;;21.82;36.05;93959.22;5071728;28;20263;-91
2022/04/08 10:44:32;;;;;;;5.60;1.95;;;;;;;22.09;35.34;93952.97;5073104;28;20196;-91
2022/04/08 10:47:01;;;;;;;2.03;1.75;;;;;;;22.31;35.76;93941.53;5073216;28;20228;-91
2022/04/08 10:49:28;;;;;;;3.50;1.90;;;;;;;22.50;34.53;93942.03;5073943;28;20228;-90
2022/04/08 10:51:55;;;;;;;2.38;1.80;;;;;;;22.34;33.91;93940.88;5073665;28;20206;-92
2022/04/08 10:54:21;;;;;;;4.13;1.88;;;;;;;22.42;34.55;93937.50;5073199;28;20209;-91
2022/04/08 10:56:59;;;;;;;4.28;1.98;;;;;;;22.69;33.05;93937.22;5073708;28;20202;-92
2022/04/08 10:59:27;;;;;;;5.00;2.08;;;;;;;22.73;33.78;93935.53;5074146;28;20228;-93
2022/04/08 11:02:00;;;;;;;2.10;1.50;;;;;;;22.79;32.34;93934.28;5073968;28;20197;-92
2022/04/08 11:04:29;;;;;;;2.55;1.80;;;;;;;22.75;32.85;93937.84;5074033;28;20182;-92
2022/04/08 11:06:56;;;;;;;4.15;1.77;;;;;;;22.74;32.93;93921.16;5073956;28;20216;-92
2022/04/08 11:09:24;;;;;;;2.83;1.70;;;;;;;22.97;33.08;93938.47;5073817;28;20197;-92
2022/04/08 11:11:53;;;;;;;3.75;1.63;;;;;;;23.15;32.11;93936.59;5074038;28;20202;-92
2022/04/08 11:14:21;;;;;;;1.90;1.75;;;;;;;23.44;31.89;93933.31;5080301;28;20221;-93
2022/04/08 11:16:50;;;;;;;3.63;1.90;;;;;;;23.42;32.06;93920.38;5077711;28;20619;-93
2022/04/08 11:19:21;;;;;;;4.03;1.90;;;;;;;23.53;32.93;93937.50;5073592;28;20217;-92
2022/04/08 11:21:51;;;;;;;3.72;1.60;;;;;;;23.71;31.92;93940.91;5075628;28;20656;-91
2022/04/08 11:24:18;;;;;;;2.42;1.60;;;;;;;23.69;29.11;93938.56;5078656;28;20251;-91
2022/04/08 11:26:48;;;;;;;2.75;1.70;;;;;;;23.33;30.11;93922.22;5074522;28;20204;-91
2022/04/08 11:29:16;;;;;;;4.75;1.77;;;;;;;23.39;29.63;93941.44;5075320;28;20274;-92
2022/04/08 11:31:46;;;;;;;2.55;1.77;;;;;;;23.42;29.77;93924.91;5074862;28;20569;-91
2022/04/08 11:34:14;;;;;;;1.80;1.35;;;;;;;23.52;28.73;93920.03;5073947;28;20671;-92
2022/04/08 11:36:41;;;;;;;7.13;1.95;;;;;;;23.70;29.36;93921.53;5073567;28;20553;-91
2022/04/08 11:39:09;;;;;;;2.28;1.70;;;;;;;23.50;31.87;93922.22;5074321;28;20221;-92